sensor_id;sensor_type;location;lat;lon;timestamp;P1;durP1;ratioP1;P2;durP2;ratioP2
30723;SDS011;17473;52.286;20.930;2023-04-24T00:01:15;15.48;;;8.10;;
30723;SDS011;17473;52.286;20.930;2023-04-24T00:03:43;12.05;;;7.90;;
30723;SDS011;17473;52.286;20.930;2023-04-24T00:06:10;11.40;;;7.90;;
30723;SDS011;17473;52.286;20.930;2023-04-24T00:08:37;9.70;;;7.40;;
30723;SDS011;17473;52.286;20.930;2023-04-24T00:11:04;15.57;;;8.35;;
30723;SDS011;17473;52.286;20.930;2023-04-24T00:13:31;14.75;;;8.77;;
30723;SDS011;17473;52.286;20.930;2023-04-24T00:15:58;13.52;;;8.65;;
30723;SDS011;17473;52.286;20.930;2023-04-24T00:18:25;17.50;;;8.93;;
30723;SDS011;17473;52.286;20.930;2023-04-24T00:20:52;16.20;;;8.90;;
30723;SDS011;17473;52.286;20.930;2023-04-24T00:23:20;16.05;;;8.80;;
30723;SDS011;17473;52.286;20.930;2023-04-24T00:25:47;18.17;;;8.18;;
30723;SDS011;17473;52.286;20.930;2023-04-24T00:28:14;13.27;;;7.97;;
30723;SDS011;17473;52.286;20.930;2023-04-24T00:30:41;16.25;;;8.93;;
30723;SDS011;17473;52.286;20.930;2023-04-24T00:33:08;12.20;;;8.57;;
30723;SDS011;17473;52.286;20.930;2023-04-24T00:35:35;13.20;;;8.80;;
30723;SDS011;17473;52.286;20.930;2023-04-24T00:38:02;23.50;;;8.63;;
30723;SDS011;17473;52.286;20.930;2023-04-24T00:40:29;11.20;;;8.32;;
30723;SDS011;17473;52.286;20.930;2023-04-24T00:42:56;14.52;;;8.45;;
30723;SDS011;17473;52.286;20.930;2023-04-24T00:45:23;11.65;;;8.45;;
30723;SDS011;17473;52.286;20.930;2023-04-24T00:47:52;15.20;;;8.95;;
30723;SDS011;17473;52.286;20.930;2023-04-24T00:50:20;12.88;;;8.68;;
30723;SDS011;17473;52.286;20.930;2023-04-24T00:52:48;13.32;;;9.02;;
30723;SDS011;17473;52.286;20.930;2023-04-24T00:55:15;14.95;;;8.32;;
30723;SDS011;17473;52.286;20.930;2023-04-24T00:57:42;16.20;;;9.57;;
30723;SDS011;17473;52.286;20.930;2023-04-24T01:00:11;11.18;;;8.32;;
30723;SDS011;17473;52.286;20.930;2023-04-24T01:02:40;12.40;;;8.88;;
30723;SDS011;17473;52.286;20.930;2023-04-24T01:05:13;15.13;;;9.48;;
30723;SDS011;17473;52.286;20.930;2023-04-24T01:07:41;14.60;;;9.15;;
30723;SDS011;17473;52.286;20.930;2023-04-24T01:10:12;16.75;;;8.88;;
30723;SDS011;17473;52.286;20.930;2023-04-24T01:12:40;16.95;;;9.05;;
30723;SDS011;17473;52.286;20.930;2023-04-24T01:15:07;17.83;;;8.88;;
30723;SDS011;17473;52.286;20.930;2023-04-24T01:17:35;13.73;;;8.82;;
30723;SDS011;17473;52.286;20.930;2023-04-24T01:20:03;17.55;;;8.95;;
30723;SDS011;17473;52.286;20.930;2023-04-24T01:22:34;14.77;;;8.63;;
30723;SDS011;17473;52.286;20.930;2023-04-24T01:25:02;17.60;;;9.02;;
30723;SDS011;17473;52.286;20.930;2023-04-24T01:27:30;13.90;;;9.27;;
30723;SDS011;17473;52.286;20.930;2023-04-24T01:32:33;12.57;;;8.95;;
30723;SDS011;17473;52.286;20.930;2023-04-24T01:35:01;15.23;;;8.73;;
30723;SDS011;17473;52.286;20.930;2023-04-24T01:37:28;13.95;;;9.02;;
30723;SDS011;17473;52.286;20.930;2023-04-24T01:39:56;15.90;;;9.25;;
30723;SDS011;17473;52.286;20.930;2023-04-24T01:42:23;17.63;;;8.77;;
30723;SDS011;17473;52.286;20.930;2023-04-24T01:44:50;11.88;;;8.98;;
30723;SDS011;17473;52.286;20.930;2023-04-24T01:47:17;14.13;;;8.73;;
30723;SDS011;17473;52.286;20.930;2023-04-24T01:49:45;13.05;;;8.90;;
30723;SDS011;17473;52.286;20.930;2023-04-24T01:52:13;12.00;;;8.18;;
30723;SDS011;17473;52.286;20.930;2023-04-24T01:54:41;16.73;;;9.80;;
30723;SDS011;17473;52.286;20.930;2023-04-24T01:57:08;13.40;;;9.25;;
30723;SDS011;17473;52.286;20.930;2023-04-24T01:59:35;13.40;;;8.50;;
30723;SDS011;17473;52.286;20.930;2023-04-24T02:02:03;13.23;;;8.48;;
30723;SDS011;17473;52.286;20.930;2023-04-24T02:04:30;13.52;;;8.88;;
30723;SDS011;17473;52.286;20.930;2023-04-24T02:06:57;15.40;;;8.50;;
30723;SDS011;17473;52.286;20.930;2023-04-24T02:09:24;13.88;;;8.60;;
30723;SDS011;17473;52.286;20.930;2023-04-24T02:11:51;15.18;;;9.27;;
30723;SDS011;17473;52.286;20.930;2023-04-24T02:14:18;13.95;;;9.05;;
30723;SDS011;17473;52.286;20.930;2023-04-24T02:16:45;15.65;;;9.05;;
30723;SDS011;17473;52.286;20.930;2023-04-24T02:19:12;14.65;;;9.35;;
30723;SDS011;17473;52.286;20.930;2023-04-24T02:21:39;15.98;;;8.50;;
30723;SDS011;17473;52.286;20.930;2023-04-24T02:24:06;15.68;;;8.82;;
30723;SDS011;17473;52.286;20.930;2023-04-24T02:26:33;14.75;;;9.45;;
30723;SDS011;17473;52.286;20.930;2023-04-24T02:29:00;13.27;;;8.98;;
30723;SDS011;17473;52.286;20.930;2023-04-24T02:31:27;17.17;;;9.25;;
30723;SDS011;17473;52.286;20.930;2023-04-24T02:33:54;14.05;;;8.98;;
30723;SDS011;17473;52.286;20.930;2023-04-24T02:36:22;11.85;;;8.75;;
30723;SDS011;17473;52.286;20.930;2023-04-24T02:38:49;16.88;;;9.02;;
30723;SDS011;17473;52.286;20.930;2023-04-24T02:41:16;13.18;;;9.68;;
30723;SDS011;17473;52.286;20.930;2023-04-24T02:43:43;19.85;;;9.55;;
30723;SDS011;17473;52.286;20.930;2023-04-24T02:46:10;16.55;;;9.77;;
30723;SDS011;17473;52.286;20.930;2023-04-24T02:48:37;16.27;;;8.43;;
30723;SDS011;17473;52.286;20.930;2023-04-24T02:51:04;17.98;;;9.57;;
30723;SDS011;17473;52.286;20.930;2023-04-24T02:53:32;17.58;;;9.68;;
30723;SDS011;17473;52.286;20.930;2023-04-24T02:55:59;19.20;;;9.90;;
30723;SDS011;17473;52.286;20.930;2023-04-24T02:58:26;19.27;;;9.52;;
30723;SDS011;17473;52.286;20.930;2023-04-24T03:00:54;19.40;;;9.73;;
30723;SDS011;17473;52.286;20.930;2023-04-24T03:03:22;14.00;;;9.55;;
30723;SDS011;17473;52.286;20.930;2023-04-24T03:05:50;19.33;;;10.70;;
30723;SDS011;17473;52.286;20.930;2023-04-24T03:08:17;18.42;;;10.60;;
30723;SDS011;17473;52.286;20.930;2023-04-24T03:10:44;24.27;;;9.85;;
30723;SDS011;17473;52.286;20.930;2023-04-24T03:13:13;20.35;;;10.05;;
30723;SDS011;17473;52.286;20.930;2023-04-24T03:15:42;14.50;;;9.85;;
30723;SDS011;17473;52.286;20.930;2023-04-24T03:18:09;18.65;;;9.32;;
30723;SDS011;17473;52.286;20.930;2023-04-24T03:20:36;19.58;;;9.95;;
30723;SDS011;17473;52.286;20.930;2023-04-24T03:23:03;14.20;;;9.43;;
30723;SDS011;17473;52.286;20.930;2023-04-24T03:25:30;14.27;;;9.30;;
30723;SDS011;17473;52.286;20.930;2023-04-24T03:27:57;18.52;;;9.93;;
30723;SDS011;17473;52.286;20.930;2023-04-24T03:30:24;14.63;;;9.07;;
30723;SDS011;17473;52.286;20.930;2023-04-24T03:32:51;16.63;;;9.65;;
30723;SDS011;17473;52.286;20.930;2023-04-24T03:35:18;16.67;;;9.52;;
30723;SDS011;17473;52.286;20.930;2023-04-24T03:37:47;14.15;;;9.43;;
30723;SDS011;17473;52.286;20.930;2023-04-24T03:40:14;13.48;;;9.65;;
30723;SDS011;17473;52.286;20.930;2023-04-24T03:42:41;20.77;;;9.60;;
30723;SDS011;17473;52.286;20.930;2023-04-24T03:45:08;13.07;;;9.13;;
30723;SDS011;17473;52.286;20.930;2023-04-24T03:47:36;12.93;;;9.60;;
30723;SDS011;17473;52.286;20.930;2023-04-24T03:50:03;14.52;;;9.50;;
30723;SDS011;17473;52.286;20.930;2023-04-24T03:52:31;17.27;;;9.07;;
30723;SDS011;17473;52.286;20.930;2023-04-24T03:54:58;14.25;;;8.95;;
30723;SDS011;17473;52.286;20.930;2023-04-24T03:57:25;14.93;;;9.80;;
30723;SDS011;17473;52.286;20.930;2023-04-24T03:59:52;13.68;;;9.20;;
30723;SDS011;17473;52.286;20.930;2023-04-24T04:02:20;16.13;;;9.95;;
30723;SDS011;17473;52.286;20.930;2023-04-24T04:04:47;18.13;;;8.98;;
30723;SDS011;17473;52.286;20.930;2023-04-24T04:07:14;16.73;;;10.10;;
30723;SDS011;17473;52.286;20.930;2023-04-24T04:09:41;21.13;;;11.10;;
30723;SDS011;17473;52.286;20.930;2023-04-24T04:12:09;14.77;;;8.95;;
30723;SDS011;17473;52.286;20.930;2023-04-24T04:14:36;15.30;;;9.20;;
30723;SDS011;17473;52.286;20.930;2023-04-24T04:17:03;16.10;;;9.45;;
30723;SDS011;17473;52.286;20.930;2023-04-24T04:19:30;14.38;;;8.98;;
30723;SDS011;17473;52.286;20.930;2023-04-24T04:21:57;18.05;;;9.77;;
30723;SDS011;17473;52.286;20.930;2023-04-24T04:24:24;17.00;;;8.60;;
30723;SDS011;17473;52.286;20.930;2023-04-24T04:26:52;16.25;;;9.13;;
30723;SDS011;17473;52.286;20.930;2023-04-24T04:29:22;13.32;;;9.65;;
30723;SDS011;17473;52.286;20.930;2023-04-24T04:31:50;15.43;;;9.15;;
30723;SDS011;17473;52.286;20.930;2023-04-24T04:34:17;13.25;;;8.75;;
30723;SDS011;17473;52.286;20.930;2023-04-24T04:36:44;10.35;;;8.30;;
30723;SDS011;17473;52.286;20.930;2023-04-24T04:39:12;16.38;;;9.15;;
30723;SDS011;17473;52.286;20.930;2023-04-24T04:41:41;14.57;;;9.57;;
30723;SDS011;17473;52.286;20.930;2023-04-24T04:44:08;16.33;;;9.32;;
30723;SDS011;17473;52.286;20.930;2023-04-24T04:46:36;13.52;;;8.23;;
30723;SDS011;17473;52.286;20.930;2023-04-24T04:49:03;14.02;;;9.00;;
30723;SDS011;17473;52.286;20.930;2023-04-24T04:51:30;12.00;;;9.18;;
30723;SDS011;17473;52.286;20.930;2023-04-24T04:53:58;14.07;;;8.82;;
30723;SDS011;17473;52.286;20.930;2023-04-24T04:56:25;14.65;;;9.25;;
30723;SDS011;17473;52.286;20.930;2023-04-24T04:58:52;13.25;;;9.38;;
30723;SDS011;17473;52.286;20.930;2023-04-24T05:01:19;15.90;;;9.07;;
30723;SDS011;17473;52.286;20.930;2023-04-24T05:03:47;15.20;;;9.15;;
30723;SDS011;17473;52.286;20.930;2023-04-24T05:06:14;12.48;;;8.93;;
30723;SDS011;17473;52.286;20.930;2023-04-24T05:08:42;20.02;;;11.18;;
30723;SDS011;17473;52.286;20.930;2023-04-24T05:11:09;37.05;;;21.50;;
30723;SDS011;17473;52.286;20.930;2023-04-24T05:13:36;29.15;;;16.58;;
30723;SDS011;17473;52.286;20.930;2023-04-24T05:16:06;21.73;;;11.88;;
30723;SDS011;17473;52.286;20.930;2023-04-24T05:18:33;18.45;;;9.43;;
30723;SDS011;17473;52.286;20.930;2023-04-24T05:21:00;13.88;;;9.32;;
30723;SDS011;17473;52.286;20.930;2023-04-24T05:23:28;21.33;;;8.95;;
30723;SDS011;17473;52.286;20.930;2023-04-24T05:25:55;23.55;;;8.80;;
30723;SDS011;17473;52.286;20.930;2023-04-24T05:28:22;19.15;;;8.90;;
30723;SDS011;17473;52.286;20.930;2023-04-24T05:30:49;11.98;;;8.05;;
30723;SDS011;17473;52.286;20.930;2023-04-24T05:33:16;14.70;;;8.45;;
30723;SDS011;17473;52.286;20.930;2023-04-24T05:35:43;14.52;;;8.40;;
30723;SDS011;17473;52.286;20.930;2023-04-24T05:38:13;13.57;;;8.73;;
30723;SDS011;17473;52.286;20.930;2023-04-24T05:40:43;15.43;;;8.52;;
30723;SDS011;17473;52.286;20.930;2023-04-24T05:43:11;11.77;;;8.65;;
30723;SDS011;17473;52.286;20.930;2023-04-24T05:45:38;19.80;;;9.35;;
30723;SDS011;17473;52.286;20.930;2023-04-24T05:48:06;16.35;;;8.80;;
30723;SDS011;17473;52.286;20.930;2023-04-24T05:50:33;13.25;;;8.40;;
30723;SDS011;17473;52.286;20.930;2023-04-24T05:53:02;13.88;;;8.30;;
30723;SDS011;17473;52.286;20.930;2023-04-24T05:55:30;11.70;;;8.25;;
30723;SDS011;17473;52.286;20.930;2023-04-24T05:57:57;19.67;;;8.73;;
30723;SDS011;17473;52.286;20.930;2023-04-24T06:00:25;12.52;;;7.82;;
30723;SDS011;17473;52.286;20.930;2023-04-24T06:02:53;16.20;;;8.48;;
30723;SDS011;17473;52.286;20.930;2023-04-24T06:05:21;17.90;;;8.57;;
30723;SDS011;17473;52.286;20.930;2023-04-24T06:07:48;17.38;;;8.93;;
30723;SDS011;17473;52.286;20.930;2023-04-24T06:10:15;18.02;;;8.05;;
30723;SDS011;17473;52.286;20.930;2023-04-24T06:12:42;19.83;;;9.18;;
30723;SDS011;17473;52.286;20.930;2023-04-24T06:15:09;15.98;;;8.98;;
30723;SDS011;17473;52.286;20.930;2023-04-24T06:17:36;13.43;;;8.43;;
30723;SDS011;17473;52.286;20.930;2023-04-24T06:20:04;16.95;;;8.20;;
30723;SDS011;17473;52.286;20.930;2023-04-24T06:22:33;14.90;;;8.32;;
30723;SDS011;17473;52.286;20.930;2023-04-24T06:25:00;14.27;;;7.57;;
30723;SDS011;17473;52.286;20.930;2023-04-24T06:27:27;13.98;;;8.02;;
30723;SDS011;17473;52.286;20.930;2023-04-24T06:29:54;16.52;;;8.45;;
30723;SDS011;17473;52.286;20.930;2023-04-24T06:32:22;19.42;;;8.18;;
30723;SDS011;17473;52.286;20.930;2023-04-24T06:34:51;18.23;;;8.48;;
30723;SDS011;17473;52.286;20.930;2023-04-24T06:37:19;13.40;;;8.07;;
30723;SDS011;17473;52.286;20.930;2023-04-24T06:39:47;18.58;;;7.38;;
30723;SDS011;17473;52.286;20.930;2023-04-24T06:42:14;16.67;;;7.65;;
30723;SDS011;17473;52.286;20.930;2023-04-24T06:44:41;15.50;;;8.02;;
30723;SDS011;17473;52.286;20.930;2023-04-24T06:47:11;10.23;;;7.18;;
30723;SDS011;17473;52.286;20.930;2023-04-24T06:49:39;13.77;;;7.43;;
30723;SDS011;17473;52.286;20.930;2023-04-24T06:52:07;13.13;;;7.45;;
30723;SDS011;17473;52.286;20.930;2023-04-24T06:54:35;12.40;;;7.30;;
30723;SDS011;17473;52.286;20.930;2023-04-24T06:57:02;14.90;;;6.95;;
30723;SDS011;17473;52.286;20.930;2023-04-24T06:59:29;17.15;;;7.82;;
30723;SDS011;17473;52.286;20.930;2023-04-24T07:01:56;12.45;;;6.35;;
30723;SDS011;17473;52.286;20.930;2023-04-24T07:04:24;16.20;;;7.68;;
30723;SDS011;17473;52.286;20.930;2023-04-24T07:06:52;14.65;;;7.20;;
30723;SDS011;17473;52.286;20.930;2023-04-24T07:09:24;11.75;;;6.47;;
30723;SDS011;17473;52.286;20.930;2023-04-24T07:11:52;18.77;;;7.53;;
30723;SDS011;17473;52.286;20.930;2023-04-24T07:14:20;13.98;;;7.22;;
30723;SDS011;17473;52.286;20.930;2023-04-24T07:16:47;16.67;;;7.95;;
30723;SDS011;17473;52.286;20.930;2023-04-24T07:19:14;13.32;;;7.72;;
30723;SDS011;17473;52.286;20.930;2023-04-24T07:21:41;18.30;;;7.32;;
30723;SDS011;17473;52.286;20.930;2023-04-24T07:24:08;21.00;;;7.93;;
30723;SDS011;17473;52.286;20.930;2023-04-24T07:26:37;14.30;;;8.70;;
30723;SDS011;17473;52.286;20.930;2023-04-24T07:29:06;21.15;;;8.38;;
30723;SDS011;17473;52.286;20.930;2023-04-24T07:31:34;15.10;;;8.07;;
30723;SDS011;17473;52.286;20.930;2023-04-24T07:34:01;19.90;;;8.70;;
30723;SDS011;17473;52.286;20.930;2023-04-24T07:36:28;12.25;;;8.02;;
30723;SDS011;17473;52.286;20.930;2023-04-24T07:38:55;20.30;;;8.90;;
30723;SDS011;17473;52.286;20.930;2023-04-24T07:41:23;21.38;;;9.00;;
30723;SDS011;17473;52.286;20.930;2023-04-24T07:43:50;17.83;;;8.27;;
30723;SDS011;17473;52.286;20.930;2023-04-24T07:46:20;16.77;;;8.77;;
30723;SDS011;17473;52.286;20.930;2023-04-24T07:48:47;12.98;;;7.75;;
30723;SDS011;17473;52.286;20.930;2023-04-24T07:51:27;16.70;;;8.63;;
30723;SDS011;17473;52.286;20.930;2023-04-24T07:53:54;18.00;;;8.93;;
30723;SDS011;17473;52.286;20.930;2023-04-24T07:56:21;19.77;;;9.00;;
30723;SDS011;17473;52.286;20.930;2023-04-24T07:58:48;21.50;;;8.20;;
30723;SDS011;17473;52.286;20.930;2023-04-24T08:01:15;19.60;;;8.60;;
30723;SDS011;17473;52.286;20.930;2023-04-24T08:03:42;22.33;;;8.43;;
30723;SDS011;17473;52.286;20.930;2023-04-24T08:06:10;14.98;;;8.25;;
30723;SDS011;17473;52.286;20.930;2023-04-24T08:08:37;18.65;;;8.50;;
30723;SDS011;17473;52.286;20.930;2023-04-24T08:11:04;11.80;;;8.32;;
30723;SDS011;17473;52.286;20.930;2023-04-24T08:13:31;13.27;;;7.97;;
30723;SDS011;17473;52.286;20.930;2023-04-24T08:15:58;22.73;;;8.70;;
30723;SDS011;17473;52.286;20.930;2023-04-24T08:18:25;17.13;;;8.27;;
30723;SDS011;17473;52.286;20.930;2023-04-24T08:20:53;17.88;;;8.35;;
30723;SDS011;17473;52.286;20.930;2023-04-24T08:23:20;20.00;;;8.90;;
30723;SDS011;17473;52.286;20.930;2023-04-24T08:25:47;17.65;;;8.52;;
30723;SDS011;17473;52.286;20.930;2023-04-24T08:28:14;15.40;;;9.02;;
30723;SDS011;17473;52.286;20.930;2023-04-24T08:30:46;19.95;;;7.88;;
30723;SDS011;17473;52.286;20.930;2023-04-24T08:33:14;13.38;;;8.15;;
30723;SDS011;17473;52.286;20.930;2023-04-24T08:35:41;15.18;;;8.13;;
30723;SDS011;17473;52.286;20.930;2023-04-24T08:38:08;22.20;;;8.23;;
30723;SDS011;17473;52.286;20.930;2023-04-24T08:40:35;15.13;;;8.07;;
30723;SDS011;17473;52.286;20.930;2023-04-24T08:43:05;18.38;;;7.70;;
30723;SDS011;17473;52.286;20.930;2023-04-24T08:45:33;17.85;;;7.82;;
30723;SDS011;17473;52.286;20.930;2023-04-24T08:48:00;17.25;;;8.55;;
30723;SDS011;17473;52.286;20.930;2023-04-24T08:50:28;12.88;;;7.68;;
30723;SDS011;17473;52.286;20.930;2023-04-24T08:52:57;16.20;;;7.93;;
30723;SDS011;17473;52.286;20.930;2023-04-24T08:55:25;18.67;;;8.05;;
30723;SDS011;17473;52.286;20.930;2023-04-24T08:57:52;15.68;;;8.18;;
30723;SDS011;17473;52.286;20.930;2023-04-24T09:00:20;19.98;;;7.95;;
30723;SDS011;17473;52.286;20.930;2023-04-24T09:02:51;12.10;;;7.45;;
30723;SDS011;17473;52.286;20.930;2023-04-24T09:05:21;17.58;;;8.40;;
30723;SDS011;17473;52.286;20.930;2023-04-24T09:07:54;13.75;;;7.47;;
30723;SDS011;17473;52.286;20.930;2023-04-24T09:10:23;14.57;;;7.93;;
30723;SDS011;17473;52.286;20.930;2023-04-24T09:12:51;12.43;;;7.68;;
30723;SDS011;17473;52.286;20.930;2023-04-24T09:15:19;11.68;;;7.15;;
30723;SDS011;17473;52.286;20.930;2023-04-24T09:17:47;15.48;;;8.02;;
30723;SDS011;17473;52.286;20.930;2023-04-24T09:20:14;13.57;;;7.43;;
30723;SDS011;17473;52.286;20.930;2023-04-24T09:22:41;14.55;;;7.22;;
30723;SDS011;17473;52.286;20.930;2023-04-24T09:25:11;15.48;;;8.48;;
30723;SDS011;17473;52.286;20.930;2023-04-24T09:27:45;17.55;;;8.00;;
30723;SDS011;17473;52.286;20.930;2023-04-24T09:30:12;12.32;;;7.40;;
30723;SDS011;17473;52.286;20.930;2023-04-24T09:32:40;14.60;;;6.53;;
30723;SDS011;17473;52.286;20.930;2023-04-24T09:35:09;16.67;;;6.93;;
30723;SDS011;17473;52.286;20.930;2023-04-24T09:37:39;15.63;;;6.35;;
30723;SDS011;17473;52.286;20.930;2023-04-24T09:40:16;12.88;;;7.15;;
30723;SDS011;17473;52.286;20.930;2023-04-24T09:42:55;10.63;;;6.40;;
30723;SDS011;17473;52.286;20.930;2023-04-24T09:45:39;7.55;;;5.20;;
30723;SDS011;17473;52.286;20.930;2023-04-24T09:48:09;11.80;;;5.78;;
30723;SDS011;17473;52.286;20.930;2023-04-24T09:50:37;14.45;;;6.63;;
30723;SDS011;17473;52.286;20.930;2023-04-24T09:53:05;11.00;;;6.25;;
30723;SDS011;17473;52.286;20.930;2023-04-24T09:55:42;12.07;;;5.60;;
30723;SDS011;17473;52.286;20.930;2023-04-24T09:58:14;11.45;;;5.50;;
30723;SDS011;17473;52.286;20.930;2023-04-24T10:00:41;9.50;;;5.40;;
30723;SDS011;17473;52.286;20.930;2023-04-24T10:03:08;13.57;;;6.07;;
30723;SDS011;17473;52.286;20.930;2023-04-24T10:05:35;13.10;;;6.50;;
30723;SDS011;17473;52.286;20.930;2023-04-24T10:08:09;9.00;;;5.68;;
30723;SDS011;17473;52.286;20.930;2023-04-24T10:10:44;13.02;;;6.40;;
30723;SDS011;17473;52.286;20.930;2023-04-24T10:13:13;10.40;;;4.65;;
30723;SDS011;17473;52.286;20.930;2023-04-24T10:15:42;8.27;;;4.65;;
30723;SDS011;17473;52.286;20.930;2023-04-24T10:18:10;9.10;;;4.68;;
30723;SDS011;17473;52.286;20.930;2023-04-24T10:20:38;10.18;;;4.65;;
30723;SDS011;17473;52.286;20.930;2023-04-24T10:23:06;9.05;;;5.22;;
30723;SDS011;17473;52.286;20.930;2023-04-24T10:25:35;8.80;;;4.53;;
30723;SDS011;17473;52.286;20.930;2023-04-24T10:28:03;12.23;;;4.90;;
30723;SDS011;17473;52.286;20.930;2023-04-24T10:30:33;12.35;;;4.75;;
30723;SDS011;17473;52.286;20.930;2023-04-24T10:33:05;8.50;;;4.82;;
30723;SDS011;17473;52.286;20.930;2023-04-24T10:35:36;7.05;;;4.35;;
30723;SDS011;17473;52.286;20.930;2023-04-24T10:38:09;5.63;;;4.28;;
30723;SDS011;17473;52.286;20.930;2023-04-24T10:40:39;6.80;;;4.78;;
30723;SDS011;17473;52.286;20.930;2023-04-24T10:43:08;11.00;;;4.95;;
30723;SDS011;17473;52.286;20.930;2023-04-24T10:45:38;7.93;;;5.38;;
30723;SDS011;17473;52.286;20.930;2023-04-24T10:48:09;9.60;;;5.43;;
30723;SDS011;17473;52.286;20.930;2023-04-24T10:53:22;11.32;;;5.47;;
30723;SDS011;17473;52.286;20.930;2023-04-24T10:56:03;11.15;;;5.63;;
30723;SDS011;17473;52.286;20.930;2023-04-24T10:58:45;16.40;;;5.78;;
30723;SDS011;17473;52.286;20.930;2023-04-24T11:01:25;13.07;;;6.15;;
30723;SDS011;17473;52.286;20.930;2023-04-24T11:03:59;9.27;;;5.82;;
30723;SDS011;17473;52.286;20.930;2023-04-24T11:06:30;10.63;;;5.47;;
30723;SDS011;17473;52.286;20.930;2023-04-24T11:09:06;9.65;;;5.97;;
30723;SDS011;17473;52.286;20.930;2023-04-24T11:11:36;12.20;;;6.97;;
30723;SDS011;17473;52.286;20.930;2023-04-24T11:14:06;12.35;;;6.53;;
30723;SDS011;17473;52.286;20.930;2023-04-24T11:16:44;9.93;;;6.40;;
30723;SDS011;17473;52.286;20.930;2023-04-24T11:19:24;13.25;;;6.15;;
30723;SDS011;17473;52.286;20.930;2023-04-24T11:24:38;12.20;;;6.05;;
30723;SDS011;17473;52.286;20.930;2023-04-24T11:27:18;8.75;;;5.78;;
30723;SDS011;17473;52.286;20.930;2023-04-24T11:34:55;12.77;;;6.10;;
30723;SDS011;17473;52.286;20.930;2023-04-24T11:37:41;9.20;;;5.63;;
30723;SDS011;17473;52.286;20.930;2023-04-24T11:40:37;13.55;;;5.80;;
30723;SDS011;17473;52.286;20.930;2023-04-24T11:43:05;9.50;;;5.35;;
30723;SDS011;17473;52.286;20.930;2023-04-24T11:45:33;8.98;;;5.40;;
30723;SDS011;17473;52.286;20.930;2023-04-24T11:48:02;7.93;;;5.47;;
30723;SDS011;17473;52.286;20.930;2023-04-24T11:50:30;8.15;;;5.45;;
30723;SDS011;17473;52.286;20.930;2023-04-24T11:52:57;6.97;;;5.20;;
30723;SDS011;17473;52.286;20.930;2023-04-24T11:55:26;8.38;;;6.00;;
30723;SDS011;17473;52.286;20.930;2023-04-24T11:57:56;16.08;;;6.90;;
30723;SDS011;17473;52.286;20.930;2023-04-24T12:00:29;10.48;;;6.20;;
30723;SDS011;17473;52.286;20.930;2023-04-24T12:03:11;7.47;;;5.38;;
30723;SDS011;17473;52.286;20.930;2023-04-24T12:05:39;9.38;;;5.60;;
30723;SDS011;17473;52.286;20.930;2023-04-24T12:08:07;10.93;;;5.80;;
30723;SDS011;17473;52.286;20.930;2023-04-24T12:10:34;10.05;;;5.22;;
30723;SDS011;17473;52.286;20.930;2023-04-24T12:13:02;11.30;;;4.90;;
30723;SDS011;17473;52.286;20.930;2023-04-24T12:15:29;25.23;;;6.60;;
30723;SDS011;17473;52.286;20.930;2023-04-24T12:17:56;9.45;;;4.90;;
30723;SDS011;17473;52.286;20.930;2023-04-24T12:20:26;11.10;;;4.80;;
30723;SDS011;17473;52.286;20.930;2023-04-24T12:22:59;7.80;;;4.63;;
30723;SDS011;17473;52.286;20.930;2023-04-24T12:30:33;15.20;;;5.15;;
30723;SDS011;17473;52.286;20.930;2023-04-24T12:33:05;7.75;;;5.43;;
30723;SDS011;17473;52.286;20.930;2023-04-24T12:35:32;10.50;;;6.10;;
30723;SDS011;17473;52.286;20.930;2023-04-24T12:38:05;10.43;;;4.28;;
30723;SDS011;17473;52.286;20.930;2023-04-24T12:40:37;6.53;;;4.47;;
30723;SDS011;17473;52.286;20.930;2023-04-24T12:43:14;5.88;;;4.60;;
30723;SDS011;17473;52.286;20.930;2023-04-24T12:45:49;7.18;;;5.25;;
30723;SDS011;17473;52.286;20.930;2023-04-24T12:48:16;16.50;;;5.78;;
30723;SDS011;17473;52.286;20.930;2023-04-24T12:50:43;10.32;;;4.63;;
30723;SDS011;17473;52.286;20.930;2023-04-24T12:53:12;8.82;;;5.32;;
30723;SDS011;17473;52.286;20.930;2023-04-24T12:55:39;9.88;;;4.47;;
30723;SDS011;17473;52.286;20.930;2023-04-24T12:58:06;76.80;;;8.63;;
30723;SDS011;17473;52.286;20.930;2023-04-24T13:00:34;30.17;;;6.32;;
30723;SDS011;17473;52.286;20.930;2023-04-24T13:03:02;23.65;;;5.47;;
30723;SDS011;17473;52.286;20.930;2023-04-24T13:05:30;22.23;;;5.00;;
30723;SDS011;17473;52.286;20.930;2023-04-24T13:07:57;31.48;;;4.65;;
30723;SDS011;17473;52.286;20.930;2023-04-24T13:10:24;20.52;;;4.63;;
30723;SDS011;17473;52.286;20.930;2023-04-24T13:12:51;11.15;;;4.22;;
30723;SDS011;17473;52.286;20.930;2023-04-24T13:15:18;14.27;;;4.45;;
30723;SDS011;17473;52.286;20.930;2023-04-24T13:17:46;8.27;;;3.97;;
30723;SDS011;17473;52.286;20.930;2023-04-24T13:20:13;7.95;;;3.47;;
30723;SDS011;17473;52.286;20.930;2023-04-24T13:22:40;11.93;;;3.05;;
30723;SDS011;17473;52.286;20.930;2023-04-24T13:25:07;10.02;;;3.10;;
30723;SDS011;17473;52.286;20.930;2023-04-24T13:27:35;5.63;;;3.35;;
30723;SDS011;17473;52.286;20.930;2023-04-24T13:30:04;11.48;;;3.20;;
30723;SDS011;17473;52.286;20.930;2023-04-24T13:32:32;11.93;;;3.42;;
30723;SDS011;17473;52.286;20.930;2023-04-24T13:35:01;8.25;;;3.55;;
30723;SDS011;17473;52.286;20.930;2023-04-24T13:37:29;16.40;;;4.18;;
30723;SDS011;17473;52.286;20.930;2023-04-24T13:39:56;12.55;;;3.83;;
30723;SDS011;17473;52.286;20.930;2023-04-24T13:42:23;9.80;;;3.78;;
30723;SDS011;17473;52.286;20.930;2023-04-24T13:44:50;10.77;;;4.13;;
30723;SDS011;17473;52.286;20.930;2023-04-24T13:47:17;7.18;;;3.63;;
30723;SDS011;17473;52.286;20.930;2023-04-24T13:49:44;8.75;;;4.30;;
30723;SDS011;17473;52.286;20.930;2023-04-24T13:52:11;8.13;;;3.47;;
30723;SDS011;17473;52.286;20.930;2023-04-24T13:54:38;9.30;;;4.40;;
30723;SDS011;17473;52.286;20.930;2023-04-24T13:57:05;6.93;;;3.63;;
30723;SDS011;17473;52.286;20.930;2023-04-24T13:59:32;5.95;;;3.45;;
30723;SDS011;17473;52.286;20.930;2023-04-24T14:01:59;4.82;;;3.58;;
30723;SDS011;17473;52.286;20.930;2023-04-24T14:04:26;11.90;;;4.10;;
30723;SDS011;17473;52.286;20.930;2023-04-24T14:06:54;6.25;;;3.90;;
30723;SDS011;17473;52.286;20.930;2023-04-24T14:09:21;8.10;;;4.10;;
30723;SDS011;17473;52.286;20.930;2023-04-24T14:11:49;10.13;;;3.85;;
30723;SDS011;17473;52.286;20.930;2023-04-24T14:14:18;5.82;;;3.88;;
30723;SDS011;17473;52.286;20.930;2023-04-24T14:16:45;4.28;;;3.60;;
30723;SDS011;17473;52.286;20.930;2023-04-24T14:19:12;7.00;;;3.78;;
30723;SDS011;17473;52.286;20.930;2023-04-24T14:21:39;5.60;;;3.03;;
30723;SDS011;17473;52.286;20.930;2023-04-24T14:24:06;10.27;;;3.60;;
30723;SDS011;17473;52.286;20.930;2023-04-24T14:26:34;5.55;;;3.85;;
30723;SDS011;17473;52.286;20.930;2023-04-24T14:29:01;6.22;;;4.07;;
30723;SDS011;17473;52.286;20.930;2023-04-24T14:31:40;10.75;;;3.60;;
30723;SDS011;17473;52.286;20.930;2023-04-24T14:34:08;6.65;;;3.35;;
30723;SDS011;17473;52.286;20.930;2023-04-24T14:36:35;4.75;;;3.50;;
30723;SDS011;17473;52.286;20.930;2023-04-24T14:39:02;4.28;;;3.22;;
30723;SDS011;17473;52.286;20.930;2023-04-24T14:41:33;10.65;;;3.53;;
30723;SDS011;17473;52.286;20.930;2023-04-24T14:44:02;25.02;;;5.32;;
30723;SDS011;17473;52.286;20.930;2023-04-24T14:46:29;8.65;;;3.50;;
30723;SDS011;17473;52.286;20.930;2023-04-24T14:48:57;8.43;;;3.80;;